createdAt,value
2023-05-14T00:01:08.232Z,9.86
2023-05-14T00:04:11.171Z,9.83
2023-05-14T00:07:14.019Z,9.77
2023-05-14T00:10:19.185Z,9.70
2023-05-14T00:13:21.890Z,9.66
2023-05-14T00:16:24.629Z,9.65
2023-05-14T00:19:27.873Z,9.66
2023-05-14T00:22:30.602Z,9.65
2023-05-14T00:25:33.345Z,9.61
2023-05-14T00:28:36.212Z,9.59
2023-05-14T00:31:39.013Z,9.58
2023-05-14T00:34:42.053Z,9.51
2023-05-14T00:37:44.882Z,9.42
2023-05-14T00:40:51.464Z,9.37
2023-05-14T00:43:54.305Z,9.34
2023-05-14T00:46:57.362Z,9.32
2023-05-14T00:50:01.188Z,9.28
2023-05-14T00:53:10.058Z,9.24
2023-05-14T00:56:15.161Z,9.24
2023-05-14T00:59:17.916Z,9.20
2023-05-14T01:02:20.823Z,9.13
2023-05-14T01:05:28.643Z,9.06
2023-05-14T01:09:01.860Z,9.03
2023-05-14T01:12:27.082Z,8.96
2023-05-14T01:15:36.172Z,8.90
2023-05-14T01:18:41.549Z,8.89
2023-05-14T01:21:44.370Z,8.89
2023-05-14T01:24:47.360Z,8.88
2023-05-14T01:28:03.964Z,8.85
2023-05-14T01:31:25.193Z,8.85
2023-05-14T01:34:30.102Z,8.87
2023-05-14T01:37:33.258Z,8.86
2023-05-14T01:40:37.370Z,8.82
2023-05-14T01:43:41.161Z,8.69
2023-05-14T01:46:44.068Z,8.63
2023-05-14T01:49:46.797Z,8.59
2023-05-14T01:52:51.288Z,8.56
2023-05-14T01:55:54.124Z,8.55
2023-05-14T01:58:57.118Z,8.61
2023-05-14T02:02:00.405Z,8.68
2023-05-14T02:05:04.909Z,8.69
2023-05-14T02:08:09.656Z,8.71
2023-05-14T02:11:12.622Z,8.61
2023-05-14T02:14:15.785Z,8.48
2023-05-14T02:17:18.964Z,8.39
2023-05-14T02:20:21.817Z,8.33
2023-05-14T02:23:34.048Z,8.33
2023-05-14T02:26:41.189Z,8.33
2023-05-14T02:29:44.766Z,8.35
2023-05-14T02:32:47.528Z,8.37
2023-05-14T02:35:51.008Z,8.39
2023-05-14T02:38:53.953Z,8.39
2023-05-14T02:41:58.143Z,8.42
2023-05-14T02:45:01.063Z,8.43
2023-05-14T02:48:03.984Z,8.39
2023-05-14T02:51:07.902Z,8.36
2023-05-14T02:54:10.784Z,8.34
2023-05-14T02:57:13.714Z,8.32
2023-05-14T03:00:16.893Z,8.35
2023-05-14T03:03:20.562Z,8.38
2023-05-14T03:06:23.721Z,8.44
2023-05-14T03:09:26.570Z,8.54
2023-05-14T03:12:29.320Z,8.67
2023-05-14T03:15:32.031Z,8.67
2023-05-14T03:18:36.674Z,8.60
2023-05-14T03:21:39.806Z,8.62
2023-05-14T03:24:42.655Z,8.68
2023-05-14T03:27:46.023Z,8.74
2023-05-14T03:30:49.146Z,8.83
2023-05-14T03:33:52.262Z,9.00
2023-05-14T03:36:55.189Z,9.20
2023-05-14T03:39:57.938Z,9.36
2023-05-14T03:43:00.994Z,9.57
2023-05-14T03:46:03.848Z,9.81
2023-05-14T03:49:07.283Z,10.07
2023-05-14T03:52:10.830Z,10.29
2023-05-14T03:55:13.628Z,10.54
2023-05-14T03:58:17.453Z,10.86
2023-05-14T04:01:20.292Z,11.19
2023-05-14T04:04:23.164Z,11.55
2023-05-14T04:07:26.054Z,11.79
2023-05-14T04:10:29.892Z,11.87
2023-05-14T04:13:32.837Z,11.89
2023-05-14T04:16:35.883Z,11.88
2023-05-14T04:19:39.376Z,11.80
2023-05-14T04:22:42.218Z,11.73
2023-05-14T04:25:45.059Z,11.70
2023-05-14T04:28:47.818Z,11.69
2023-05-14T04:31:50.661Z,11.66
2023-05-14T04:34:53.403Z,11.67
2023-05-14T04:37:56.860Z,11.68
2023-05-14T04:40:59.781Z,11.68
2023-05-14T04:44:03.554Z,11.68
2023-05-14T04:47:07.113Z,11.66
2023-05-14T04:50:09.948Z,11.71
2023-05-14T04:53:12.725Z,11.77
2023-05-14T04:56:15.484Z,11.74
2023-05-14T04:59:18.262Z,11.74
2023-05-14T05:02:21.155Z,11.73
2023-05-14T05:05:24.309Z,11.74
2023-05-14T05:08:27.006Z,11.79
2023-05-14T05:11:29.930Z,11.86
2023-05-14T05:14:32.798Z,12.00
2023-05-14T05:17:35.900Z,12.17
2023-05-14T05:20:38.779Z,12.39
2023-05-14T05:23:41.529Z,12.71
2023-05-14T05:26:44.315Z,13.08
2023-05-14T05:29:47.007Z,13.39
2023-05-14T05:32:49.868Z,13.68
2023-05-14T05:35:52.827Z,13.91
2023-05-14T05:38:56.203Z,14.23
2023-05-14T05:41:58.926Z,14.64
2023-05-14T05:45:01.643Z,15.01
2023-05-14T05:48:04.989Z,15.43
2023-05-14T05:51:07.936Z,15.84
2023-05-14T05:54:10.682Z,16.24
2023-05-14T05:57:13.761Z,16.62
2023-05-14T06:00:17.123Z,17.01
2023-05-14T06:03:20.001Z,17.39
2023-05-14T06:06:22.912Z,17.77
2023-05-14T06:09:25.685Z,18.05
2023-05-14T06:12:28.450Z,18.05
2023-05-14T06:15:31.394Z,18.00
2023-05-14T06:18:34.157Z,17.98
2023-05-14T06:21:37.041Z,18.02
2023-05-14T06:24:39.798Z,18.29
2023-05-14T06:27:42.802Z,18.44
2023-05-14T06:30:45.687Z,18.52
2023-05-14T06:33:48.408Z,18.56
2023-05-14T06:36:51.206Z,18.66
2023-05-14T06:39:54.737Z,18.94
2023-05-14T06:42:59.251Z,19.12
2023-05-14T06:46:02.106Z,19.30
2023-05-14T06:49:05.438Z,19.27
2023-05-14T06:52:08.298Z,19.29
2023-05-14T06:55:11.103Z,19.19
2023-05-14T06:58:14.231Z,19.23
2023-05-14T07:01:17.616Z,19.30
2023-05-14T07:04:20.842Z,19.23
2023-05-14T07:07:23.662Z,19.14
2023-05-14T07:10:26.567Z,19.04
2023-05-14T07:13:29.927Z,19.02
2023-05-14T07:16:32.741Z,18.90
2023-05-14T07:19:35.593Z,18.90
2023-05-14T07:22:38.407Z,18.82
2023-05-14T07:25:41.116Z,18.82
2023-05-14T07:28:44.148Z,18.85
2023-05-14T07:31:47.218Z,18.84
2023-05-14T07:34:49.988Z,18.88
2023-05-14T07:37:52.948Z,19.10
2023-05-14T07:40:56.221Z,19.26
2023-05-14T07:43:58.932Z,19.34
2023-05-14T07:47:01.646Z,19.44
2023-05-14T07:50:04.804Z,19.34
2023-05-14T07:53:08.069Z,19.36
2023-05-14T07:56:10.812Z,19.46
2023-05-14T07:59:13.570Z,19.53
2023-05-14T08:02:17.097Z,19.73
2023-05-14T08:05:20.638Z,19.80
2023-05-14T08:08:23.413Z,19.78
2023-05-14T08:11:26.224Z,19.94
2023-05-14T08:14:29.115Z,20.06
2023-05-14T08:17:31.907Z,20.08
2023-05-14T08:20:34.731Z,20.02
2023-05-14T08:23:37.506Z,20.11
2023-05-14T08:26:40.237Z,20.25
2023-05-14T08:29:43.144Z,20.17
2023-05-14T08:32:46.030Z,20.06
2023-05-14T08:35:52.868Z,19.97
2023-05-14T08:38:55.814Z,20.00
2023-05-14T08:42:00.881Z,20.03
2023-05-14T08:45:06.215Z,20.09
2023-05-14T08:48:15.661Z,20.17
2023-05-14T08:51:19.406Z,20.21
2023-05-14T08:54:23.924Z,20.24
2023-05-14T08:57:28.022Z,20.45
2023-05-14T09:00:31.100Z,20.63
2023-05-14T09:03:34.978Z,20.83
2023-05-14T09:06:38.376Z,20.81
2023-05-14T09:09:41.551Z,20.76
2023-05-14T09:12:44.519Z,20.75
2023-05-14T09:15:48.975Z,20.96
2023-05-14T09:18:52.331Z,21.08
2023-05-14T09:22:01.008Z,21.22
2023-05-14T09:25:26.383Z,20.92
2023-05-14T09:28:30.747Z,20.66
2023-05-14T09:31:33.921Z,20.64
2023-05-14T09:34:39.703Z,20.78
2023-05-14T09:37:44.200Z,20.98
2023-05-14T09:40:46.918Z,21.24
2023-05-14T09:43:51.447Z,21.64
2023-05-14T09:46:55.116Z,21.94
2023-05-14T09:49:57.888Z,21.92
2023-05-14T09:53:01.003Z,21.93
2023-05-14T09:56:03.874Z,22.10
2023-05-14T09:59:06.586Z,22.13
2023-05-14T10:02:26.288Z,22.13
2023-05-14T10:05:29.753Z,22.37
2023-05-14T10:08:41.328Z,22.56
2023-05-14T10:11:45.585Z,22.48
2023-05-14T10:14:53.304Z,22.44
2023-05-14T10:18:00.954Z,22.65
2023-05-14T10:21:08.072Z,22.76
2023-05-14T10:24:11.417Z,22.67
2023-05-14T10:27:15.329Z,22.59
2023-05-14T10:30:23.207Z,22.83
2023-05-14T10:33:27.321Z,22.90
2023-05-14T10:36:30.169Z,22.57
2023-05-14T10:39:51.243Z,22.42
2023-05-14T10:42:59.194Z,22.25
2023-05-14T10:46:02.970Z,21.93
2023-05-14T10:49:06.038Z,21.70
2023-05-14T10:52:09.548Z,21.56
2023-05-14T10:55:16.909Z,21.56
2023-05-14T10:58:19.750Z,21.69
2023-05-14T11:01:24.282Z,22.03
2023-05-14T11:04:28.230Z,22.34
2023-05-14T11:07:33.822Z,22.67
2023-05-14T11:10:39.007Z,22.87
2023-05-14T11:13:42.913Z,22.92
2023-05-14T11:16:47.434Z,22.80
2023-05-14T11:19:51.232Z,22.58
2023-05-14T11:22:55.390Z,22.39
2023-05-14T11:25:58.342Z,22.22
2023-05-14T11:29:01.321Z,22.25
2023-05-14T11:32:06.734Z,22.05
2023-05-14T11:35:10.189Z,21.73
2023-05-14T11:38:21.285Z,21.55
2023-05-14T11:41:24.528Z,21.30
2023-05-14T11:44:27.408Z,21.19
2023-05-14T11:47:31.732Z,21.20
2023-05-14T11:50:36.721Z,21.06
2023-05-14T11:53:39.553Z,20.98
2023-05-14T11:56:42.285Z,20.89
2023-05-14T11:59:46.276Z,20.84
2023-05-14T12:02:50.143Z,21.07
2023-05-14T12:06:00.716Z,21.21
2023-05-14T12:09:05.904Z,21.34
2023-05-14T12:12:12.408Z,21.40
2023-05-14T12:15:17.428Z,21.25
2023-05-14T12:18:24.577Z,21.19
2023-05-14T12:21:29.401Z,21.17
2023-05-14T12:24:32.154Z,21.31
2023-05-14T12:27:37.753Z,21.43
2023-05-14T12:30:41.338Z,21.42
2023-05-14T12:33:44.072Z,21.46
2023-05-14T12:36:46.815Z,21.53
2023-05-14T12:39:49.878Z,21.66
2023-05-14T12:42:54.048Z,21.68
2023-05-14T12:45:57.809Z,21.76
2023-05-14T12:49:00.593Z,21.74
2023-05-14T12:52:22.815Z,21.58
2023-05-14T12:55:28.190Z,21.62
2023-05-14T12:58:30.903Z,21.81
2023-05-14T13:01:33.790Z,21.97
2023-05-14T13:04:37.437Z,21.95
2023-05-14T13:07:40.642Z,21.92
2023-05-14T13:10:44.667Z,21.84
2023-05-14T13:13:47.585Z,21.94
2023-05-14T13:16:50.852Z,22.01
2023-05-14T13:19:53.777Z,21.93
2023-05-14T13:22:57.225Z,21.82
2023-05-14T13:25:59.957Z,21.73
2023-05-14T13:29:02.915Z,21.69
2023-05-14T13:32:06.274Z,21.70
2023-05-14T13:35:09.576Z,21.71
2023-05-14T13:38:12.297Z,21.76
2023-05-14T13:41:15.060Z,21.89
2023-05-14T13:44:17.915Z,22.00
2023-05-14T13:47:20.729Z,22.09
2023-05-14T13:50:23.573Z,21.99
2023-05-14T13:53:27.242Z,21.83
2023-05-14T13:56:30.036Z,21.75
2023-05-14T13:59:32.999Z,21.77
2023-05-14T14:02:35.770Z,21.80
2023-05-14T14:05:38.918Z,21.78
2023-05-14T14:08:41.794Z,21.82
2023-05-14T14:11:44.885Z,21.91
2023-05-14T14:14:48.207Z,21.85
2023-05-14T14:17:51.051Z,21.80
2023-05-14T14:20:53.807Z,21.63
2023-05-14T14:23:56.550Z,21.35
2023-05-14T14:26:59.295Z,21.13
2023-05-14T14:30:02.247Z,21.00
2023-05-14T14:33:05.373Z,20.92
2023-05-14T14:36:09.060Z,20.90
2023-05-14T14:39:11.864Z,20.89
2023-05-14T14:42:14.674Z,20.89
2023-05-14T14:45:17.737Z,20.92
2023-05-14T14:48:28.347Z,20.96
2023-05-14T14:51:31.631Z,21.01
2023-05-14T14:54:34.359Z,21.06
2023-05-14T14:57:37.110Z,21.02
2023-05-14T15:00:40.413Z,20.98
2023-05-14T15:03:45.786Z,20.95
2023-05-14T15:06:48.913Z,20.86
2023-05-14T15:09:51.659Z,20.80
2023-05-14T15:12:57.863Z,20.75
2023-05-14T15:16:00.791Z,20.66
2023-05-14T15:19:03.730Z,20.58
2023-05-14T15:22:06.564Z,20.54
2023-05-14T15:25:09.755Z,20.52
2023-05-14T15:28:12.488Z,20.55
2023-05-14T15:31:15.985Z,20.54
2023-05-14T15:34:18.763Z,20.52
2023-05-14T15:37:23.878Z,20.55
2023-05-14T15:40:29.793Z,20.57
2023-05-14T15:43:32.573Z,20.60
2023-05-14T15:46:35.807Z,20.57
2023-05-14T15:49:38.744Z,20.49
2023-05-14T15:52:41.582Z,20.44
2023-05-14T15:55:44.736Z,20.43
2023-05-14T15:58:48.474Z,20.44
2023-05-14T16:01:51.479Z,20.43
2023-05-14T16:04:54.290Z,20.44
2023-05-14T16:07:57.094Z,20.45
2023-05-14T16:10:59.898Z,20.45
2023-05-14T16:14:02.729Z,20.42
2023-05-14T16:17:05.559Z,20.40
2023-05-14T16:20:09.155Z,20.37
2023-05-14T16:23:11.963Z,20.31
2023-05-14T16:26:14.705Z,20.24
2023-05-14T16:29:17.760Z,20.14
2023-05-14T16:32:21.738Z,20.07
2023-05-14T16:35:24.568Z,19.95
2023-05-14T16:38:27.336Z,19.88
2023-05-14T16:41:30.258Z,19.81
2023-05-14T16:44:33.048Z,19.78
2023-05-14T16:47:35.841Z,19.75
2023-05-14T16:50:38.727Z,19.69
2023-05-14T16:53:41.439Z,19.64
2023-05-14T16:56:48.157Z,19.55
2023-05-14T16:59:51.317Z,19.48
2023-05-14T17:02:54.343Z,19.42
2023-05-14T17:05:57.318Z,19.38
2023-05-14T17:09:00.167Z,19.32
2023-05-14T17:12:03.303Z,19.27
2023-05-14T17:15:07.310Z,19.19
2023-05-14T17:18:12.066Z,19.10
2023-05-14T17:21:15.238Z,19.06
2023-05-14T17:24:18.333Z,19.00
2023-05-14T17:27:21.470Z,18.96
2023-05-14T17:30:24.992Z,18.93
2023-05-14T17:33:28.530Z,18.89
2023-05-14T17:36:32.391Z,18.87
2023-05-14T17:39:35.924Z,18.87
2023-05-14T17:42:39.107Z,18.86
2023-05-14T17:45:53.031Z,18.84
2023-05-14T17:48:58.396Z,18.81
2023-05-14T17:52:02.182Z,18.79
2023-05-14T17:55:05.587Z,18.73
2023-05-14T17:58:08.508Z,18.65
2023-05-14T18:01:11.667Z,18.61
2023-05-14T18:04:15.113Z,18.55
2023-05-14T18:07:19.228Z,18.47
2023-05-14T18:10:22.025Z,18.37
2023-05-14T18:13:24.870Z,18.28
2023-05-14T18:16:28.415Z,18.21
2023-05-14T18:19:31.344Z,18.13
2023-05-14T18:22:34.099Z,18.04
2023-05-14T18:25:36.894Z,17.94
2023-05-14T18:28:39.967Z,17.85
2023-05-14T18:31:42.670Z,17.76
2023-05-14T18:34:45.370Z,17.68
2023-05-14T18:37:48.142Z,17.62
2023-05-14T18:40:51.100Z,17.54
2023-05-14T18:43:53.830Z,17.48
2023-05-14T18:46:56.673Z,17.41
2023-05-14T18:50:02.107Z,17.32
2023-05-14T18:53:05.435Z,17.26
2023-05-14T18:56:09.669Z,17.22
2023-05-14T18:59:12.446Z,17.19
2023-05-14T19:02:15.380Z,17.13
2023-05-14T19:05:18.260Z,17.08
2023-05-14T19:08:21.157Z,17.02
2023-05-14T19:11:24.075Z,16.97
2023-05-14T19:14:26.829Z,16.93
2023-05-14T19:17:32.769Z,16.88
2023-05-14T19:20:35.794Z,16.83
2023-05-14T19:23:39.443Z,16.77
2023-05-14T19:26:42.238Z,16.73
2023-05-14T19:29:45.112Z,16.68
2023-05-14T19:32:48.460Z,16.67
2023-05-14T19:35:52.101Z,16.65
2023-05-14T19:38:54.935Z,16.62
2023-05-14T19:41:57.688Z,16.57
2023-05-14T19:45:00.575Z,16.53
2023-05-14T19:48:06.166Z,16.48
2023-05-14T19:51:09.119Z,16.44
2023-05-14T19:54:11.925Z,16.39
2023-05-14T19:57:14.821Z,16.37
2023-05-14T20:00:17.865Z,16.35
2023-05-14T20:03:31.194Z,16.36
2023-05-14T20:06:34.317Z,16.33
2023-05-14T20:09:37.088Z,16.31
2023-05-14T20:12:40.020Z,16.30
2023-05-14T20:15:43.373Z,16.27
2023-05-14T20:18:46.336Z,16.24
2023-05-14T20:21:49.081Z,16.20
2023-05-14T20:24:52.883Z,16.17
2023-05-14T20:27:55.723Z,16.15
2023-05-14T20:31:03.988Z,16.12
2023-05-14T20:34:07.060Z,16.11
2023-05-14T20:37:10.175Z,16.10
2023-05-14T20:40:13.071Z,16.05
2023-05-14T20:43:16.119Z,16.03
2023-05-14T20:46:19.088Z,16.00
2023-05-14T20:49:21.948Z,15.97
2023-05-14T20:52:25.097Z,15.95
2023-05-14T20:55:28.202Z,15.94
2023-05-14T20:58:31.050Z,15.89
2023-05-14T21:01:33.835Z,15.88
2023-05-14T21:04:36.646Z,15.87
2023-05-14T21:07:39.735Z,15.86
2023-05-14T21:10:42.488Z,15.83
2023-05-14T21:13:45.259Z,15.79
2023-05-14T21:16:48.620Z,15.77
2023-05-14T21:19:51.731Z,15.73
2023-05-14T21:22:54.496Z,15.68
2023-05-14T21:25:57.927Z,15.66
2023-05-14T21:29:00.929Z,15.63
2023-05-14T21:32:04.088Z,15.60
2023-05-14T21:35:07.493Z,15.59
2023-05-14T21:38:10.339Z,15.57
2023-05-14T21:41:13.323Z,15.55
2023-05-14T21:44:16.099Z,15.53
2023-05-14T21:47:19.880Z,15.51
2023-05-14T21:50:22.617Z,15.49
2023-05-14T21:53:25.344Z,15.48
2023-05-14T21:56:28.153Z,15.45
2023-05-14T21:59:30.873Z,15.44
2023-05-14T22:02:33.614Z,15.42
2023-05-14T22:05:36.522Z,15.40
2023-05-14T22:08:39.218Z,15.38
2023-05-14T22:11:41.933Z,15.38
2023-05-14T22:14:44.808Z,15.35
2023-05-14T22:17:48.202Z,15.32
2023-05-14T22:20:51.296Z,15.29
2023-05-14T22:23:54.132Z,15.27
2023-05-14T22:27:22.206Z,15.24
2023-05-14T22:30:25.114Z,15.20
2023-05-14T22:33:27.865Z,15.22
2023-05-14T22:36:30.645Z,15.20
2023-05-14T22:39:33.468Z,15.19
2023-05-14T22:42:36.200Z,15.18
2023-05-14T22:45:38.923Z,15.21
2023-05-14T22:48:42.222Z,15.21
2023-05-14T22:51:44.979Z,15.20
2023-05-14T22:54:51.029Z,15.18
2023-05-14T22:57:53.954Z,15.13
2023-05-14T23:00:57.278Z,15.07
2023-05-14T23:04:00.238Z,15.04
2023-05-14T23:07:03.157Z,15.02
2023-05-14T23:10:06.732Z,14.97
2023-05-14T23:13:09.504Z,14.94
2023-05-14T23:16:12.267Z,14.95
2023-05-14T23:19:15.207Z,14.95
2023-05-14T23:22:18.547Z,14.96
2023-05-14T23:25:21.254Z,14.94
2023-05-14T23:28:24.153Z,14.95
2023-05-14T23:31:26.907Z,14.97
2023-05-14T23:34:29.624Z,14.97
2023-05-14T23:37:33.703Z,14.96
2023-05-14T23:40:36.582Z,14.99
2023-05-14T23:43:39.402Z,14.97
2023-05-14T23:46:42.169Z,14.97
2023-05-14T23:49:44.958Z,14.98
2023-05-14T23:52:47.694Z,14.97
2023-05-14T23:55:50.754Z,14.98
2023-05-14T23:58:53.828Z,14.99
